Time;durP1;ratioP1;P1;durP2;ratioP2;P2;SDS_P1;SDS_P2;PMS_P1;PMS_P2;Temp;Humidity;BMP_temperature;BMP_pressure;BME280_temperature;BME280_humidity;BME280_pressure;Samples;Min_cycle;Max_cycle;Signal;HPM_P1;HPM_P2
2022/11/13 00:02:01;;;;;;;;;;;;;;;28.73;27.83;102404.34;5077611;28;1112;-46
2022/11/13 00:04:26;;;;;;;;;;;;;;;29.08;27.35;102405.41;5077724;28;1210;-44
2022/11/13 00:06:51;;;;;;;;;;;;;;;28.69;27.67;102406.53;5077062;28;1238;-45
2022/11/13 00:09:17;;;;;;;;;;;;;;;28.08;28.23;102398.88;5077566;28;1115;-45
2022/11/13 00:11:42;;;;;;;;;;;;;;;28.81;27.73;102398.19;5077358;28;1155;-46
2022/11/13 00:14:07;;;;;;;;;;;;;;;29.14;27.24;102406.63;5077034;28;1222;-47
2022/11/13 00:16:32;;;;;;;;;;;;;;;28.28;27.99;102392.53;5077650;28;1143;-44
2022/11/13 00:18:58;;;;;;;;;;;;;;;28.60;28.00;102389.34;5076629;28;1153;-49
2022/11/13 00:21:24;;;;;;;;;;;;;;;29.18;27.05;102383.63;5076946;28;1961;-47
2022/11/13 00:23:49;;;;;;;;;;;;;;;28.80;27.43;102375.66;5077035;28;1146;-46
2022/11/13 00:26:15;;;;;;;;;;;;;;;28.18;28.20;102381.72;5058919;28;1243;-45
2022/11/13 00:28:41;;;;;;;;;;;;;;;28.88;27.72;102387.59;5077042;28;1147;-45
2022/11/13 00:31:07;;;;;;;;;;;;;;;29.33;27.08;102374.91;5076606;28;1028;-48
2022/11/13 00:33:32;;;;;;;;;;;;;;;28.59;27.47;102373.25;5076820;28;1166;-46
2022/11/13 00:36:01;;;;;;;;;;;;;;;28.36;28.56;102374.53;5076874;28;1229;-47
2022/11/13 00:38:26;;;;;;;;;;;;;;;29.20;27.27;102369.91;5076691;28;1253;-46
2022/11/13 00:40:52;;;;;;;;;;;;;;;28.66;27.53;102373.50;5076757;28;1894;-44
2022/11/13 00:43:17;;;;;;;;;;;;;;;28.22;28.28;102370.47;5076556;28;1159;-44
2022/11/13 00:45:42;;;;;;;;;;;;;;;29.16;27.48;102382.09;5076349;28;1143;-45
2022/11/13 00:48:08;;;;;;;;;;;;;;;29.27;27.20;102375.56;5076108;28;1162;-47
2022/11/13 00:50:33;;;;;;;;;;;;;;;28.42;27.80;102375.81;5076098;28;1139;-52
2022/11/13 00:52:58;;;;;;;;;;;;;;;28.75;27.82;102377.13;5076896;28;1176;-48
2022/11/13 00:55:23;;;;;;;;;;;;;;;29.30;27.18;102375.22;5076667;28;1128;-45
2022/11/13 00:57:49;;;;;;;;;;;;;;;28.63;27.46;102371.94;5075921;28;1139;-49
2022/11/13 01:00:14;;;;;;;;;;;;;;;28.47;28.32;102364.50;5076615;28;1966;-44
2022/11/13 01:02:39;;;;;;;;;;;;;;;29.20;27.33;102365.34;5076144;28;1111;-48
2022/11/13 01:05:05;;;;;;;;;;;;;;;29.36;26.87;102363.78;5076082;28;1199;-50
2022/11/13 01:07:30;;;;;;;;;;;;;;;28.74;27.29;102365.47;5075988;28;1135;-46
2022/11/13 01:09:55;;;;;;;;;;;;;;;28.35;27.95;102363.88;5076481;28;1170;-45
2022/11/13 01:12:21;;;;;;;;;;;;;;;29.24;27.21;102357.75;5076126;28;1238;-46
2022/11/13 01:14:46;;;;;;;;;;;;;;;29.08;27.02;102356.63;5075816;28;1220;-45
2022/11/13 01:17:11;;;;;;;;;;;;;;;28.44;27.75;102356.69;5071919;28;1267;-47
2022/11/13 01:19:37;;;;;;;;;;;;;;;29.05;27.37;102364.22;5075371;28;1902;-47
2022/11/13 01:22:02;;;;;;;;;;;;;;;29.40;26.94;102372.41;5076443;28;1064;-48
2022/11/13 01:24:27;;;;;;;;;;;;;;;29.10;26.89;102367.31;5076444;28;1210;-48
2022/11/13 01:26:52;;;;;;;;;;;;;;;28.50;27.63;102372.31;5076246;28;1087;-49
2022/11/13 01:29:18;;;;;;;;;;;;;;;29.12;27.25;102368.00;5075597;28;1525;-52
2022/11/13 01:31:43;;;;;;;;;;;;;;;29.43;26.97;102370.25;5075799;28;1238;-49
2022/11/13 01:34:08;;;;;;;;;;;;;;;28.96;27.64;102364.13;5076069;28;1202;-47
2022/11/13 01:36:33;;;;;;;;;;;;;;;28.45;27.57;102358.38;5076490;28;1166;-45
2022/11/13 01:38:59;;;;;;;;;;;;;;;29.26;27.16;102365.72;5076054;28;1213;-49
2022/11/13 01:41:28;;;;;;;;;;;;;;;29.43;26.80;102362.13;5075979;28;1967;-46
2022/11/13 01:43:53;;;;;;;;;;;;;;;29.13;26.89;102356.16;5075427;28;1171;-46
2022/11/13 01:46:28;;;;;;;;;;;;;;;28.50;27.62;102357.94;5076295;28;1060;-46
2022/11/13 01:49:09;;;;;;;;;;;;;;;29.23;27.28;102356.03;5075417;28;1155;-44
2022/11/13 01:51:54;;;;;;;;;;;;;;;29.45;26.96;102354.69;5075851;28;1195;-45
2022/11/13 01:54:21;;;;;;;;;;;;;;;28.82;27.25;102361.97;5064086;28;1366;-45
2022/11/13 01:56:46;;;;;;;;;;;;;;;28.54;27.69;102356.63;5075500;28;907;-47
2022/11/13 01:59:13;;;;;;;;;;;;;;;29.38;26.83;102352.78;5076360;28;1119;-45
2022/11/13 02:01:39;;;;;;;;;;;;;;;29.42;26.75;102362.28;5061545;28;1894;-47
2022/11/13 02:04:04;;;;;;;;;;;;;;;29.23;26.93;102355.22;5080133;28;1159;-46
2022/11/13 02:06:31;;;;;;;;;;;;;;;28.53;27.45;102353.06;5079336;28;1226;-45
2022/11/13 02:08:56;;;;;;;;;;;;;;;29.03;27.51;102352.69;5061483;28;1227;-45
2022/11/13 02:11:21;;;;;;;;;;;;;;;29.39;26.88;102349.91;5061717;28;1175;-45
2022/11/13 02:13:47;;;;;;;;;;;;;;;29.46;26.54;102352.81;5079614;28;1188;-46
2022/11/13 02:16:12;;;;;;;;;;;;;;;28.67;27.79;102354.38;5079711;28;1206;-45
2022/11/13 02:18:37;;;;;;;;;;;;;;;28.90;27.73;102351.19;5079382;28;1139;-44
2022/11/13 02:21:11;;;;;;;;;;;;;;;29.38;26.86;102356.31;5061199;28;1985;-44
2022/11/13 02:23:36;;;;;;;;;;;;;;;29.44;26.69;102362.97;5061880;28;1144;-45
2022/11/13 02:26:01;;;;;;;;;;;;;;;28.83;27.25;102359.09;5079565;28;1230;-46
2022/11/13 02:28:27;;;;;;;;;;;;;;;28.55;27.54;102356.47;5078985;28;1270;-44
2022/11/13 02:30:52;;;;;;;;;;;;;;;29.41;26.65;102352.44;5079269;28;1233;-46
2022/11/13 02:33:24;;;;;;;;;;;;;;;29.53;26.55;102358.47;5078911;28;1230;-51
2022/11/13 02:35:49;;;;;;;;;;;;;;;28.85;27.19;102357.09;5079063;28;1151;-48
2022/11/13 02:38:15;;;;;;;;;;;;;;;28.59;27.75;102359.72;5079466;28;1187;-50
2022/11/13 02:40:40;;;;;;;;;;;;;;;29.36;26.73;102366.50;5079041;28;1913;-49
2022/11/13 02:43:06;;;;;;;;;;;;;;;29.47;26.63;102368.06;5078763;28;1218;-48
2022/11/13 02:45:31;;;;;;;;;;;;;;;29.20;26.69;102359.94;5078656;28;1242;-47
2022/11/13 02:47:58;;;;;;;;;;;;;;;28.56;27.29;102358.16;5078999;28;1187;-50
2022/11/13 02:50:23;;;;;;;;;;;;;;;29.21;26.75;102364.34;5078948;28;1138;-50
2022/11/13 02:52:48;;;;;;;;;;;;;;;29.45;26.61;102368.22;5078963;28;1136;-52
2022/11/13 02:55:14;;;;;;;;;;;;;;;29.48;26.46;102369.75;5078891;28;1175;-50
2022/11/13 02:57:39;;;;;;;;;;;;;;;28.78;27.09;102360.59;5078279;28;1195;-46
2022/11/13 03:00:05;;;;;;;;;;;;;;;28.75;27.64;102360.88;5078409;28;1974;-45
2022/11/13 03:02:30;;;;;;;;;;;;;;;29.42;26.68;102360.41;5078399;28;1230;-48
2022/11/13 03:04:55;;;;;;;;;;;;;;;29.51;26.40;102365.91;5078794;28;1258;-49
2022/11/13 03:07:21;;;;;;;;;;;;;;;29.06;27.02;102360.50;5078648;28;1187;-50
2022/11/13 03:09:46;;;;;;;;;;;;;;;28.64;27.39;102365.53;5078235;28;953;-48
2022/11/13 03:12:11;;;;;;;;;;;;;;;29.32;26.92;102373.22;5077773;28;1171;-54
2022/11/13 03:14:36;;;;;;;;;;;;;;;29.40;26.90;102364.28;5078341;28;1151;-50
2022/11/13 03:17:02;;;;;;;;;;;;;;;29.53;26.50;102380.16;5078630;28;1139;-48
2022/11/13 03:19:27;;;;;;;;;;;;;;;28.87;27.16;102370.47;5078329;28;1234;-51
2022/11/13 03:21:52;;;;;;;;;;;;;;;28.82;27.58;102372.78;5077963;28;1975;-45
2022/11/13 03:24:17;;;;;;;;;;;;;;;29.52;26.44;102375.72;5078657;28;1159;-51
2022/11/13 03:26:43;;;;;;;;;;;;;;;29.52;26.28;102376.56;5078001;28;1072;-53
2022/11/13 03:29:08;;;;;;;;;;;;;;;29.07;26.68;102367.63;5078257;28;1143;-49
2022/11/13 03:31:33;;;;;;;;;;;;;;;28.66;26.85;102371.63;5078431;28;1108;-49
2022/11/13 03:33:59;;;;;;;;;;;;;;;29.33;26.80;102375.78;5077571;28;889;-46
2022/11/13 03:36:24;;;;;;;;;;;;;;;29.49;26.51;102382.31;5078049;28;1199;-50
2022/11/13 03:38:50;;;;;;;;;;;;;;;29.50;26.52;102375.88;5077953;28;1461;-49
2022/11/13 03:41:15;;;;;;;;;;;;;;;28.93;26.94;102377.97;5077477;28;1894;-46
2022/11/13 03:43:41;;;;;;;;;;;;;;;28.79;27.29;102373.09;5077846;28;1202;-45
2022/11/13 03:46:06;;;;;;;;;;;;;;;29.54;26.42;102373.72;5077328;28;870;-48
2022/11/13 03:48:31;;;;;;;;;;;;;;;29.54;26.45;102366.44;5078107;28;1127;-50
2022/11/13 03:50:57;;;;;;;;;;;;;;;29.34;26.61;102363.09;5077572;28;1232;-47
2022/11/13 03:53:22;;;;;;;;;;;;;;;28.79;27.27;102368.56;5077953;28;1163;-45
2022/11/13 03:55:47;;;;;;;;;;;;;;;29.30;27.04;102367.97;5077683;28;1147;-47
2022/11/13 03:58:12;;;;;;;;;;;;;;;29.49;26.67;102359.78;5077325;28;918;-48
2022/11/13 04:00:38;;;;;;;;;;;;;;;29.16;26.30;102360.41;5076658;28;1963;-50
2022/11/13 04:03:03;;;;;;;;;;;;;;;26.85;25.45;102356.28;5077786;28;1299;-47
2022/11/13 04:05:28;;;;;;;;;;;;;;;26.03;26.62;102362.63;5077558;28;1131;-50
2022/11/13 04:07:54;;;;;;;;;;;;;;;25.53;26.79;102356.97;5083324;28;1182;-48
2022/11/13 04:10:19;;;;;;;;;;;;;;;24.11;28.52;102360.50;5077132;28;884;-49
2022/11/13 04:12:44;;;;;;;;;;;;;;;22.83;29.69;102346.06;5077313;28;1163;-42
2022/11/13 04:15:10;;;;;;;;;;;;;;;24.64;27.17;102350.88;5076804;28;1131;-40
2022/11/13 04:17:35;;;;;;;;;;;;;;;26.02;25.01;102350.16;5077586;28;1131;-38
2022/11/13 04:20:00;;;;;;;;;;;;;;;26.56;24.29;102359.81;5077098;28;1911;-39
2022/11/13 04:22:25;;;;;;;;;;;;;;;26.59;23.75;102351.44;5068806;28;961;-38
2022/11/13 04:24:51;;;;;;;;;;;;;;;26.35;24.14;102348.13;5076502;28;1223;-40
2022/11/13 04:27:16;;;;;;;;;;;;;;;26.36;24.03;102357.94;5077277;28;1167;-42
2022/11/13 04:29:41;;;;;;;;;;;;;;;26.36;23.81;102359.78;5077071;28;1218;-40
2022/11/13 04:32:07;;;;;;;;;;;;;;;26.08;24.41;102368.47;5076625;28;1175;-39
2022/11/13 04:34:32;;;;;;;;;;;;;;;26.11;23.87;102360.09;5076668;28;967;-42
2022/11/13 04:36:57;;;;;;;;;;;;;;;26.23;23.54;102368.94;5076872;28;1141;-41
2022/11/13 04:39:22;;;;;;;;;;;;;;;25.79;24.00;102369.22;5076909;28;1231;-38
2022/11/13 04:44:31;;;;;;;;;;;;;;;25.25;24.70;102359.38;5064958;28;950;-40
2022/11/13 04:46:57;;;;;;;;;;;;;;;24.57;25.49;102358.59;5076413;28;1121;-40
2022/11/13 04:49:22;;;;;;;;;;;;;;;25.48;25.17;102355.66;5076566;28;1127;-41
2022/11/13 04:51:47;;;;;;;;;;;;;;;26.13;24.21;102366.22;5076500;28;1215;-41
2022/11/13 04:54:13;;;;;;;;;;;;;;;23.58;26.93;102361.94;5076549;28;1195;-41
2022/11/13 04:56:38;;;;;;;;;;;;;;;22.45;27.45;102362.16;5074870;28;2901;-45
2022/11/13 04:59:03;;;;;;;;;;;;;;;22.32;28.18;102362.19;5064194;28;2106;-45
2022/11/13 05:01:28;;;;;;;;;;;;;;;22.29;28.69;102361.56;5068365;28;2105;-48
2022/11/13 05:03:54;;;;;;;;;;;;;;;22.23;29.02;102362.84;5070019;28;2308;-51
2022/11/13 05:06:20;;;;;;;;;;;;;;;22.23;28.93;102358.34;5075737;28;1984;-46
2022/11/13 05:08:46;;;;;;;;;;;;;;;22.15;29.15;102358.06;5070360;28;2313;-48
2022/11/13 05:11:11;;;;;;;;;;;;;;;22.10;29.40;102362.88;5073993;28;1879;-44
2022/11/13 05:13:37;;;;;;;;;;;;;;;22.04;29.60;102363.31;5075949;28;1222;-47
2022/11/13 05:16:03;;;;;;;;;;;;;;;22.01;29.71;102364.38;5076042;28;1203;-43
2022/11/13 05:18:28;;;;;;;;;;;;;;;22.01;29.35;102365.25;5075992;28;1147;-47
2022/11/13 05:20:53;;;;;;;;;;;;;;;21.97;29.55;102369.09;5076223;28;1910;-46
2022/11/13 05:23:19;;;;;;;;;;;;;;;21.88;30.11;102362.59;5061725;28;1128;-46
2022/11/13 05:25:44;;;;;;;;;;;;;;;21.89;29.97;102368.78;5076481;28;1171;-46
2022/11/13 05:28:09;;;;;;;;;;;;;;;22.80;30.25;102368.63;5076345;28;1158;-43
2022/11/13 05:30:34;;;;;;;;;;;;;;;23.39;29.40;102371.38;5076022;28;1159;-43
2022/11/13 05:33:00;;;;;;;;;;;;;;;23.63;28.90;102372.31;5075552;28;1214;-42
2022/11/13 05:35:25;;;;;;;;;;;;;;;23.80;28.54;102377.25;5074831;28;954;-43
2022/11/13 05:37:50;;;;;;;;;;;;;;;23.78;28.66;102367.56;5075791;28;1115;-42
2022/11/13 05:40:16;;;;;;;;;;;;;;;23.79;28.79;102370.13;5075446;28;1905;-45
2022/11/13 05:42:41;;;;;;;;;;;;;;;23.84;29.00;102377.84;5063016;28;2628;-44
2022/11/13 05:45:06;;;;;;;;;;;;;;;23.88;29.08;102381.13;5068738;28;1167;-41
2022/11/13 05:47:32;;;;;;;;;;;;;;;23.95;29.46;102379.69;5057116;28;1383;-46
2022/11/13 05:49:57;;;;;;;;;;;;;;;23.96;29.62;102381.38;5057584;28;1465;-45
2022/11/13 05:52:22;;;;;;;;;;;;;;;23.97;30.08;102383.13;5075533;28;1185;-45
2022/11/13 05:54:48;;;;;;;;;;;;;;;24.02;30.27;102386.28;5075468;28;1136;-44
2022/11/13 05:57:13;;;;;;;;;;;;;;;24.08;30.38;102383.13;5075572;28;1230;-43
2022/11/13 05:59:38;;;;;;;;;;;;;;;24.12;30.54;102397.19;5075381;28;1001;-48
2022/11/13 06:02:04;;;;;;;;;;;;;;;24.17;30.49;102402.22;5057509;28;1977;-40
2022/11/13 06:04:29;;;;;;;;;;;;;;;24.25;30.51;102401.59;5075575;28;1222;-45
2022/11/13 06:06:54;;;;;;;;;;;;;;;24.29;30.37;102403.06;5075515;28;1179;-44
2022/11/13 06:09:19;;;;;;;;;;;;;;;24.32;30.69;102400.13;5057461;28;1219;-41
2022/11/13 06:11:45;;;;;;;;;;;;;;;24.34;30.80;102401.69;5074682;28;1897;-46
2022/11/13 06:14:10;;;;;;;;;;;;;;;24.38;30.90;102406.81;5075254;28;1273;-44
2022/11/13 06:16:36;;;;;;;;;;;;;;;24.50;31.08;102396.91;5075805;28;1155;-43
2022/11/13 06:19:02;;;;;;;;;;;;;;;24.61;30.39;102399.56;5075213;28;1252;-45
2022/11/13 06:21:28;;;;;;;;;;;;;;;24.59;31.04;102393.47;5075483;28;1910;-42
2022/11/13 06:23:53;;;;;;;;;;;;;;;24.60;30.93;102397.00;5075197;28;1151;-46
2022/11/13 06:26:25;;;;;;;;;;;;;;;24.63;30.92;102404.81;5074963;28;1207;-45
2022/11/13 06:28:51;;;;;;;;;;;;;;;24.67;30.89;102403.63;5075039;28;1172;-46
2022/11/13 06:31:17;;;;;;;;;;;;;;;24.66;30.97;102401.88;5074942;28;1190;-42
2022/11/13 06:33:42;;;;;;;;;;;;;;;24.68;30.96;102405.31;5074919;28;1135;-44
2022/11/13 06:36:11;;;;;;;;;;;;;;;24.72;30.76;102405.91;5075109;28;1132;-44
2022/11/13 06:38:37;;;;;;;;;;;;;;;24.74;31.03;102402.09;5074904;28;1175;-47
2022/11/13 06:41:02;;;;;;;;;;;;;;;24.82;31.15;102401.50;5075130;28;1898;-43
2022/11/13 06:43:28;;;;;;;;;;;;;;;24.86;31.05;102404.78;5069923;28;2565;-46
2022/11/13 06:45:53;;;;;;;;;;;;;;;24.92;31.23;102393.53;5075063;28;1223;-43
2022/11/13 06:48:19;;;;;;;;;;;;;;;24.94;31.12;102387.03;5078979;28;1170;-42
2022/11/13 06:50:44;;;;;;;;;;;;;;;24.98;30.97;102390.31;5078302;28;1166;-45
2022/11/13 06:53:09;;;;;;;;;;;;;;;25.02;31.22;102393.63;5078707;28;1183;-44
2022/11/13 06:55:34;;;;;;;;;;;;;;;25.04;31.07;102387.13;5078385;28;1211;-46
2022/11/13 06:58:00;;;;;;;;;;;;;;;25.10;31.06;102392.97;5078042;28;1111;-45
2022/11/13 07:00:25;;;;;;;;;;;;;;;25.12;31.07;102386.50;5078327;28;1989;-44
2022/11/13 07:02:50;;;;;;;;;;;;;;;25.03;32.06;102384.53;5078056;28;1230;-43
2022/11/13 07:05:16;;;;;;;;;;;;;;;25.12;31.02;102383.78;5078244;28;1225;-43
2022/11/13 07:07:41;;;;;;;;;;;;;;;25.07;31.14;102376.06;5078485;28;1123;-40
2022/11/13 07:10:07;;;;;;;;;;;;;;;25.05;31.31;102374.50;5077940;28;1222;-40
2022/11/13 07:12:32;;;;;;;;;;;;;;;25.06;31.19;102374.38;5077825;28;1861;-42
2022/11/13 07:14:57;;;;;;;;;;;;;;;25.01;31.40;102379.28;5078115;28;1148;-43
2022/11/13 07:17:22;;;;;;;;;;;;;;;25.14;31.09;102375.59;5078500;28;1141;-43
2022/11/13 07:19:48;;;;;;;;;;;;;;;25.19;31.08;102373.34;5078099;28;1152;-42
2022/11/13 07:22:13;;;;;;;;;;;;;;;25.19;31.09;102370.66;5077271;28;1906;-41
2022/11/13 07:24:38;;;;;;;;;;;;;;;25.22;31.25;102373.09;5077958;28;1077;-41
2022/11/13 07:27:04;;;;;;;;;;;;;;;25.27;31.13;102370.00;5078112;28;1147;-43
2022/11/13 07:29:29;;;;;;;;;;;;;;;25.28;31.02;102367.19;5077910;28;1143;-40
2022/11/13 07:31:54;;;;;;;;;;;;;;;25.27;31.14;102370.00;5077362;28;1131;-42
2022/11/13 07:34:19;;;;;;;;;;;;;;;25.27;31.04;102365.47;5059406;28;1124;-38
2022/11/13 07:36:45;;;;;;;;;;;;;;;25.36;31.35;102368.38;5077333;28;1194;-40
2022/11/13 07:39:10;;;;;;;;;;;;;;;25.42;31.12;102359.75;5077648;28;1167;-44
2022/11/13 07:41:35;;;;;;;;;;;;;;;25.47;31.02;102367.44;5074065;28;2325;-42
2022/11/13 07:44:01;;;;;;;;;;;;;;;25.41;31.00;102361.59;5075958;28;1108;-39
2022/11/13 07:46:26;;;;;;;;;;;;;;;25.38;31.26;102353.78;5077260;28;1170;-41
2022/11/13 07:48:51;;;;;;;;;;;;;;;25.39;31.07;102358.16;5077204;28;1060;-38
2022/11/13 07:51:16;;;;;;;;;;;;;;;25.37;31.35;102357.47;5077612;28;1163;-42
2022/11/13 07:53:42;;;;;;;;;;;;;;;25.47;31.10;102354.81;5077311;28;1123;-43
2022/11/13 07:56:07;;;;;;;;;;;;;;;25.30;31.33;102362.53;5077616;28;1131;-41
2022/11/13 07:58:32;;;;;;;;;;;;;;;25.40;30.31;102359.88;5076814;28;1152;-41
2022/11/13 08:01:02;;;;;;;;;;;;;;;25.60;30.91;102360.00;5076808;28;1907;-42
2022/11/13 08:03:27;;;;;;;;;;;;;;;25.61;30.93;102353.59;5077432;28;1112;-40
2022/11/13 08:05:53;;;;;;;;;;;;;;;25.60;30.90;102354.59;5077502;28;1159;-41
2022/11/13 08:08:18;;;;;;;;;;;;;;;25.64;31.01;102355.22;5059084;28;1184;-43
2022/11/13 08:10:44;;;;;;;;;;;;;;;25.58;31.12;102350.31;5076705;28;1202;-40
2022/11/13 08:13:09;;;;;;;;;;;;;;;25.67;30.95;102346.88;5060093;28;2493;-40
2022/11/13 08:15:34;;;;;;;;;;;;;;;25.62;31.14;102351.78;5057159;28;1112;-43
2022/11/13 08:18:01;;;;;;;;;;;;;;;25.65;31.22;102351.53;5060629;28;1342;-43
2022/11/13 08:20:26;;;;;;;;;;;;;;;25.66;31.07;102347.84;5076846;28;1959;-42
2022/11/13 08:22:51;;;;;;;;;;;;;;;25.59;31.01;102347.50;5076723;28;1252;-41
2022/11/13 08:25:17;;;;;;;;;;;;;;;25.62;31.49;102347.25;5076746;28;1072;-43
2022/11/13 08:27:42;;;;;;;;;;;;;;;25.62;31.20;102351.78;5077091;28;1151;-41
2022/11/13 08:30:08;;;;;;;;;;;;;;;25.70;31.38;102351.13;5076659;28;1124;-41
2022/11/13 08:32:33;;;;;;;;;;;;;;;25.66;31.25;102345.16;5076776;28;1131;-43
2022/11/13 08:34:58;;;;;;;;;;;;;;;25.72;31.15;102343.78;5058501;28;1198;-40
2022/11/13 08:37:23;;;;;;;;;;;;;;;25.66;31.52;102342.47;5076654;28;1194;-42
2022/11/13 08:39:49;;;;;;;;;;;;;;;25.65;31.49;102340.75;5076568;28;1120;-41
2022/11/13 08:42:14;;;;;;;;;;;;;;;25.74;31.47;102341.81;5070925;28;2366;-41
2022/11/13 08:44:39;;;;;;;;;;;;;;;25.70;31.16;102338.53;5076433;28;1159;-41
2022/11/13 08:47:05;;;;;;;;;;;;;;;25.72;31.38;102339.25;5076197;28;1229;-41
2022/11/13 08:49:30;;;;;;;;;;;;;;;25.79;31.32;102334.16;5076050;28;1208;-40
2022/11/13 08:51:55;;;;;;;;;;;;;;;25.75;31.51;102338.97;5076085;28;1111;-40
2022/11/13 08:54:20;;;;;;;;;;;;;;;25.81;31.37;102334.88;5076040;28;1175;-41
2022/11/13 08:56:46;;;;;;;;;;;;;;;25.86;31.23;102331.78;5076199;28;1258;-41
2022/11/13 08:59:12;;;;;;;;;;;;;;;25.73;31.61;102326.59;5075633;28;1186;-39
2022/11/13 09:01:37;;;;;;;;;;;;;;;25.66;31.58;102327.16;5076376;28;1898;-41
2022/11/13 09:04:02;;;;;;;;;;;;;;;25.81;31.68;102324.09;5075727;28;1245;-41
2022/11/13 09:06:28;;;;;;;;;;;;;;;25.83;31.52;102321.25;5075991;28;1108;-40
2022/11/13 09:08:53;;;;;;;;;;;;;;;25.93;31.42;102314.06;5075447;28;1178;-41
2022/11/13 09:11:19;;;;;;;;;;;;;;;25.87;31.26;102318.16;5074792;28;2487;-44
2022/11/13 09:13:44;;;;;;;;;;;;;;;25.97;31.12;102318.19;5055335;28;1233;-40
2022/11/13 09:16:09;;;;;;;;;;;;;;;25.93;31.18;102305.97;5055805;28;1131;-41
2022/11/13 09:18:35;;;;;;;;;;;;;;;25.96;31.13;102304.84;5056037;28;1202;-40
2022/11/13 09:21:01;;;;;;;;;;;;;;;25.96;31.26;102302.16;5056592;28;1906;-38
2022/11/13 09:23:27;;;;;;;;;;;;;;;26.00;30.95;102295.50;5075299;28;1147;-42
2022/11/13 09:25:52;;;;;;;;;;;;;;;26.04;30.72;102292.38;5076209;28;1080;-41
2022/11/13 09:28:18;;;;;;;;;;;;;;;26.07;31.05;102287.69;5075654;28;1230;-41
2022/11/13 09:30:43;;;;;;;;;;;;;;;26.15;31.06;102290.56;5076154;28;1162;-41
2022/11/13 09:33:09;;;;;;;;;;;;;;;26.09;31.09;102286.56;5075840;28;1111;-41
2022/11/13 09:35:34;;;;;;;;;;;;;;;26.07;30.63;102275.09;5075705;28;1190;-42
2022/11/13 09:38:00;;;;;;;;;;;;;;;26.12;31.02;102274.66;5075691;28;1210;-41
2022/11/13 09:40:28;;;;;;;;;;;;;;;26.15;30.96;102269.84;5075395;28;1902;-42
2022/11/13 09:42:53;;;;;;;;;;;;;;;26.17;31.04;102267.00;5052313;28;2608;-40
2022/11/13 09:45:18;;;;;;;;;;;;;;;26.11;30.96;102259.47;5075689;28;1181;-41
2022/11/13 09:47:44;;;;;;;;;;;;;;;26.13;31.17;102257.47;5075311;28;1214;-41
2022/11/13 09:50:10;;;;;;;;;;;;;;;26.14;31.32;102248.41;5075640;28;1083;-40
2022/11/13 09:52:37;;;;;;;;;;;;;;;26.06;30.89;102249.09;5075254;28;1195;-39
2022/11/13 09:55:03;;;;;;;;;;;;;;;26.02;31.53;102250.38;5058041;28;1214;-41
2022/11/13 09:57:37;;;;;;;;;;;;;;;26.04;31.34;102241.13;5075370;28;1186;-39
2022/11/13 10:00:03;;;;;;;;;;;;;;;26.05;31.46;102244.69;5057223;28;1897;-41
2022/11/13 10:02:28;;;;;;;;;;;;;;;26.08;31.47;102243.56;5075731;28;1191;-40
2022/11/13 10:04:57;;;;;;;;;;;;;;;26.23;30.93;102236.78;5075810;28;1143;-40
2022/11/13 10:07:31;;;;;;;;;;;;;;;26.26;31.03;102235.63;5075577;28;1136;-39
2022/11/13 10:10:00;;;;;;;;;;;;;;;26.29;31.01;102232.66;5075717;28;1183;-38
2022/11/13 10:12:26;;;;;;;;;;;;;;;26.41;31.62;102231.56;5074621;28;1828;-39
2022/11/13 10:14:51;;;;;;;;;;;;;;;26.26;31.09;102228.38;5061365;28;1307;-38
2022/11/13 10:17:17;;;;;;;;;;;;;;;23.60;38.25;102223.84;5057243;28;1187;-39
2022/11/13 10:19:42;;;;;;;;;;;;;;;24.67;35.27;102228.72;5074943;28;1174;-39
2022/11/13 10:22:12;;;;;;;;;;;;;;;25.06;33.13;102228.13;5079062;28;1914;-38
2022/11/13 10:24:38;;;;;;;;;;;;;;;24.01;36.81;102222.41;5060928;28;1112;-37
2022/11/13 10:27:07;;;;;;;;;;;;;;;25.10;34.60;102217.94;5061420;28;1235;-39
2022/11/13 10:29:32;;;;;;;;;;;;;;;23.52;38.17;102217.38;5078975;28;1190;-39
2022/11/13 10:31:58;;;;;;;;;;;;;;;24.66;35.82;102216.22;5061588;28;1112;-39
2022/11/13 10:34:23;;;;;;;;;;;;;;;23.95;36.24;102211.22;5060912;28;1180;-39
2022/11/13 10:37:07;;;;;;;;;;;;;;;23.90;37.24;102205.38;5078739;28;1155;-41
2022/11/13 10:39:40;;;;;;;;;;;;;;;24.91;35.14;102209.63;5078803;28;1174;-39
2022/11/13 10:42:17;;;;;;;;;;;;;;;23.42;38.21;102198.47;5076452;28;2546;-39
2022/11/13 10:44:50;;;;;;;;;;;;;;;24.70;35.60;102194.31;5051012;28;1164;-40
2022/11/13 10:47:17;;;;;;;;;;;;;;;22.99;39.67;102195.47;5046477;28;1151;-39
2022/11/13 10:49:42;;;;;;;;;;;;;;;24.16;36.92;102196.09;5078268;28;933;-39
2022/11/13 10:52:24;;;;;;;;;;;;;;;24.89;34.98;102197.28;5060770;28;1211;-39
2022/11/13 10:54:49;;;;;;;;;;;;;;;23.38;38.76;102196.94;5078401;28;1139;-40
2022/11/13 10:57:20;;;;;;;;;;;;;;;24.88;35.63;102203.63;5060685;28;1124;-38
2022/11/13 10:59:46;;;;;;;;;;;;;;;22.99;39.85;102195.47;5076720;28;1300;-40
2022/11/13 11:02:18;;;;;;;;;;;;;;;24.14;37.22;102198.94;5072098;28;1970;-39
2022/11/13 11:04:43;;;;;;;;;;;;;;;24.49;35.09;102196.97;5064941;28;1098;-39
2022/11/13 11:07:13;;;;;;;;;;;;;;;23.46;38.75;102195.41;5078120;28;1107;-42
2022/11/13 11:09:39;;;;;;;;;;;;;;;24.76;35.88;102194.75;5078503;28;1100;-41
2022/11/13 11:12:17;;;;;;;;;;;;;;;22.82;40.49;102183.38;5078036;28;1848;-40
2022/11/13 11:14:45;;;;;;;;;;;;;;;24.06;37.04;102188.81;5077720;28;1188;-41
2022/11/13 11:17:11;;;;;;;;;;;;;;;23.99;35.91;102187.59;5077983;28;1174;-39
2022/11/13 11:19:37;;;;;;;;;;;;;;;23.19;38.94;102183.16;5078145;28;1190;-38
2022/11/13 11:22:10;;;;;;;;;;;;;;;24.62;36.14;102182.50;5078097;28;1906;-41
2022/11/13 11:24:37;;;;;;;;;;;;;;;22.87;39.56;102176.66;5059453;28;1179;-41
2022/11/13 11:27:08;;;;;;;;;;;;;;;24.07;36.80;102181.63;5078444;28;1128;-41
2022/11/13 11:29:34;;;;;;;;;;;;;;;23.97;36.02;102176.16;5078323;28;1064;-40
2022/11/13 11:32:05;;;;;;;;;;;;;;;23.31;38.72;102175.97;5077057;28;1119;-41
2022/11/13 11:34:32;;;;;;;;;;;;;;;24.55;36.01;102177.66;5077855;28;1127;-40
2022/11/13 11:37:16;;;;;;;;;;;;;;;22.80;40.38;102179.94;5066552;28;873;-40
2022/11/13 11:39:44;;;;;;;;;;;;;;;24.18;36.78;102181.59;5077731;28;1096;-40
2022/11/13 11:42:28;;;;;;;;;;;;;;;24.13;35.14;102175.72;5072005;28;1909;-40
2022/11/13 11:44:56;;;;;;;;;;;;;;;23.28;38.50;102173.53;5077421;28;1206;-40
2022/11/13 11:47:21;;;;;;;;;;;;;;;24.41;35.90;102178.81;5059986;28;1168;-39
2022/11/13 11:49:47;;;;;;;;;;;;;;;22.49;40.46;102169.69;5059315;28;1001;-39
2022/11/13 11:52:15;;;;;;;;;;;;;;;23.61;37.81;102168.28;5077356;28;1119;-40
2022/11/13 11:54:41;;;;;;;;;;;;;;;24.06;36.19;102170.00;5077544;28;1096;-38
2022/11/13 11:57:30;;;;;;;;;;;;;;;22.64;39.64;102167.69;5077558;28;1120;-39
2022/11/13 11:59:58;;;;;;;;;;;;;;;24.21;36.55;102162.53;5058129;28;1256;-40
2022/11/13 12:02:56;;;;;;;;;;;;;;;22.52;39.50;102161.44;5076832;28;1922;-41
2022/11/13 12:05:22;;;;;;;;;;;;;;;23.43;37.65;102165.25;5023447;28;1196;-41
2022/11/13 12:07:51;;;;;;;;;;;;;;;23.93;36.87;102161.25;5043185;28;1159;-42
2022/11/13 12:10:35;;;;;;;;;;;;;;;24.90;35.00;102163.97;5076851;28;1219;-41
2022/11/13 12:13:18;;;;;;;;;;;;;;;22.80;39.93;102156.66;5076601;28;2300;-41
2022/11/13 12:15:46;;;;;;;;;;;;;;;23.78;37.39;102155.28;5076923;28;1108;-41
2022/11/13 12:18:26;;;;;;;;;;;;;;;24.19;36.50;102159.09;5058919;28;1267;-40
2022/11/13 12:21:00;;;;;;;;;;;;;;;22.89;39.70;102159.59;5076925;28;1901;-39
2022/11/13 12:23:55;;;;;;;;;;;;;;;24.15;36.55;102154.94;5063586;28;1100;-39
2022/11/13 12:26:27;;;;;;;;;;;;;;;24.83;35.55;102155.56;5059577;28;1333;-41
2022/11/13 12:28:57;;;;;;;;;;;;;;;24.73;32.55;102157.34;5059536;28;1191;-41
2022/11/13 12:31:28;;;;;;;;;;;;;;;23.21;38.71;102151.69;5058810;28;1128;-39
2022/11/13 12:34:20;;;;;;;;;;;;;;;24.33;36.33;102157.94;5076284;28;1111;-39
2022/11/13 12:36:45;;;;;;;;;;;;;;;24.85;35.28;102158.13;5072247;28;2023;-40
2022/11/13 12:39:13;;;;;;;;;;;;;;;24.81;32.56;102154.84;5076469;28;1218;-40
2022/11/13 12:41:44;;;;;;;;;;;;;;;23.16;38.70;102150.31;5072099;28;2393;-41
2022/11/13 12:44:09;;;;;;;;;;;;;;;24.26;36.42;102154.06;5056712;28;1235;-42
2022/11/13 12:46:35;;;;;;;;;;;;;;;24.64;35.67;102157.16;5076467;28;1143;-40
2022/11/13 12:49:01;;;;;;;;;;;;;;;24.50;35.71;102152.97;5058288;28;1128;-42